sensor_id;sensor_type;location;lat;lon;timestamp;temperature;humidity
26599;DHT22;14240;51.064;16.612;2022-08-11T00:02:46;17.20;97.20
26599;DHT22;14240;51.064;16.612;2022-08-11T00:05:15;17.20;97.50
26599;DHT22;14240;51.064;16.612;2022-08-11T00:07:52;17.20;97.50
26599;DHT22;14240;51.064;16.612;2022-08-11T00:10:28;17.10;97.50
26599;DHT22;14240;51.064;16.612;2022-08-11T00:13:00;17.20;97.60
26599;DHT22;14240;51.064;16.612;2022-08-11T00:15:37;17.10;97.60
26599;DHT22;14240;51.064;16.612;2022-08-11T00:18:03;17.10;97.90
26599;DHT22;14240;51.064;16.612;2022-08-11T00:20:32;17.10;98.00
26599;DHT22;14240;51.064;16.612;2022-08-11T00:23:01;17.10;98.10
26599;DHT22;14240;51.064;16.612;2022-08-11T00:25:30;17.00;97.80
26599;DHT22;14240;51.064;16.612;2022-08-11T00:28:01;16.90;98.10
26599;DHT22;14240;51.064;16.612;2022-08-11T00:30:37;16.90;98.30
26599;DHT22;14240;51.064;16.612;2022-08-11T00:33:04;16.90;98.40
26599;DHT22;14240;51.064;16.612;2022-08-11T00:35:31;16.80;98.50
26599;DHT22;14240;51.064;16.612;2022-08-11T00:37:58;16.80;98.60
26599;DHT22;14240;51.064;16.612;2022-08-11T00:48:35;16.60;98.80
26599;DHT22;14240;51.064;16.612;2022-08-11T01:05:46;16.50;99.40
26599;DHT22;14240;51.064;16.612;2022-08-11T01:11:39;16.40;99.60
26599;DHT22;14240;51.064;16.612;2022-08-11T01:37:05;16.00;99.90
26599;DHT22;14240;51.064;16.612;2022-08-11T01:45:52;15.90;99.90
26599;DHT22;14240;51.064;16.612;2022-08-11T01:48:36;15.90;99.90
26599;DHT22;14240;51.064;16.612;2022-08-11T01:54:29;15.80;99.90
26599;DHT22;14240;51.064;16.612;2022-08-11T01:57:07;15.80;99.90
26599;DHT22;14240;51.064;16.612;2022-08-11T01:59:38;15.80;99.90
26599;DHT22;14240;51.064;16.612;2022-08-11T02:11:35;15.90;99.90
26599;DHT22;14240;51.064;16.612;2022-08-11T02:14:06;15.80;99.90
26599;DHT22;14240;51.064;16.612;2022-08-11T02:19:40;15.80;99.90
26599;DHT22;14240;51.064;16.612;2022-08-11T02:28:03;15.70;99.90
26599;DHT22;14240;51.064;16.612;2022-08-11T02:30:39;15.70;99.90
26599;DHT22;14240;51.064;16.612;2022-08-11T02:33:15;15.60;99.90
26599;DHT22;14240;51.064;16.612;2022-08-11T02:36:06;15.60;99.90
26599;DHT22;14240;51.064;16.612;2022-08-11T02:44:36;15.40;99.90
26599;DHT22;14240;51.064;16.612;2022-08-11T02:47:15;15.40;99.90
26599;DHT22;14240;51.064;16.612;2022-08-11T02:49:55;15.30;99.90
26599;DHT22;14240;51.064;16.612;2022-08-11T02:52:50;15.30;99.90
26599;DHT22;14240;51.064;16.612;2022-08-11T03:01:14;15.20;99.90
26599;DHT22;14240;51.064;16.612;2022-08-11T03:03:52;15.20;99.90
26599;DHT22;14240;51.064;16.612;2022-08-11T03:06:36;15.20;99.90
26599;DHT22;14240;51.064;16.612;2022-08-11T03:09:16;15.20;99.90
26599;DHT22;14240;51.064;16.612;2022-08-11T03:14:47;15.20;99.90
26599;DHT22;14240;51.064;16.612;2022-08-11T03:34:25;14.80;99.90
26599;DHT22;14240;51.064;16.612;2022-08-11T03:50:15;14.80;99.90
26599;DHT22;14240;51.064;16.612;2022-08-11T04:11:52;14.90;99.90
26599;DHT22;14240;51.064;16.612;2022-08-11T04:14:29;14.90;99.90
26599;DHT22;14240;51.064;16.612;2022-08-11T04:33:53;14.80;99.90
26599;DHT22;14240;51.064;16.612;2022-08-11T04:36:40;14.80;99.90
26599;DHT22;14240;51.064;16.612;2022-08-11T04:46:26;14.90;99.90
26599;DHT22;14240;51.064;16.612;2022-08-11T04:55:44;15.00;99.90
26599;DHT22;14240;51.064;16.612;2022-08-11T05:01:35;15.20;99.90
26599;DHT22;14240;51.064;16.612;2022-08-11T05:13:02;15.50;99.90
26599;DHT22;14240;51.064;16.612;2022-08-11T05:15:57;15.50;99.90
26599;DHT22;14240;51.064;16.612;2022-08-11T05:18:51;15.60;99.90
26599;DHT22;14240;51.064;16.612;2022-08-11T05:21:36;15.70;99.90
26599;DHT22;14240;51.064;16.612;2022-08-11T05:24:25;15.80;99.90
26599;DHT22;14240;51.064;16.612;2022-08-11T05:27:14;15.90;99.90
26599;DHT22;14240;51.064;16.612;2022-08-11T05:30:03;16.00;99.90
26599;DHT22;14240;51.064;16.612;2022-08-11T05:33:33;16.20;99.90
26599;DHT22;14240;51.064;16.612;2022-08-11T05:36:35;16.40;99.90
26599;DHT22;14240;51.064;16.612;2022-08-11T05:39:14;16.50;99.90
26599;DHT22;14240;51.064;16.612;2022-08-11T05:41:59;16.70;99.90
26599;DHT22;14240;51.064;16.612;2022-08-11T05:44:46;16.80;99.90
26599;DHT22;14240;51.064;16.612;2022-08-11T05:47:33;17.00;99.90
26599;DHT22;14240;51.064;16.612;2022-08-11T05:50:21;17.10;99.90
26599;DHT22;14240;51.064;16.612;2022-08-11T05:53:09;17.20;99.90
26599;DHT22;14240;51.064;16.612;2022-08-11T05:55:54;17.40;99.90
26599;DHT22;14240;51.064;16.612;2022-08-11T05:58:41;17.50;99.90
26599;DHT22;14240;51.064;16.612;2022-08-11T06:01:09;17.70;99.90
26599;DHT22;14240;51.064;16.612;2022-08-11T06:03:35;17.80;99.90
26599;DHT22;14240;51.064;16.612;2022-08-11T06:06:20;18.00;99.90
26599;DHT22;14240;51.064;16.612;2022-08-11T06:08:47;18.10;99.90
26599;DHT22;14240;51.064;16.612;2022-08-11T06:11:15;18.30;99.90
26599;DHT22;14240;51.064;16.612;2022-08-11T06:13:45;18.40;99.90
26599;DHT22;14240;51.064;16.612;2022-08-11T06:16:13;18.60;99.90
26599;DHT22;14240;51.064;16.612;2022-08-11T06:18:45;18.70;99.90
26599;DHT22;14240;51.064;16.612;2022-08-11T06:21:12;18.90;99.90
26599;DHT22;14240;51.064;16.612;2022-08-11T06:23:39;19.10;99.90
26599;DHT22;14240;51.064;16.612;2022-08-11T06:26:11;19.20;99.90
26599;DHT22;14240;51.064;16.612;2022-08-11T06:28:39;19.40;99.90
26599;DHT22;14240;51.064;16.612;2022-08-11T06:31:19;19.50;99.90
26599;DHT22;14240;51.064;16.612;2022-08-11T06:34:08;19.60;99.90
26599;DHT22;14240;51.064;16.612;2022-08-11T06:36:53;19.80;99.90
26599;DHT22;14240;51.064;16.612;2022-08-11T06:39:26;19.90;99.90
26599;DHT22;14240;51.064;16.612;2022-08-11T06:42:20;20.00;99.90
26599;DHT22;14240;51.064;16.612;2022-08-11T06:47:53;20.30;99.80
26599;DHT22;14240;51.064;16.612;2022-08-11T06:50:21;20.40;99.30
26599;DHT22;14240;51.064;16.612;2022-08-11T06:53:07;20.60;99.10
26599;DHT22;14240;51.064;16.612;2022-08-11T06:55:35;20.70;98.70
26599;DHT22;14240;51.064;16.612;2022-08-11T06:58:24;20.80;98.30
26599;DHT22;14240;51.064;16.612;2022-08-11T07:01:12;21.00;98.20
26599;DHT22;14240;51.064;16.612;2022-08-11T07:03:44;21.10;97.50
26599;DHT22;14240;51.064;16.612;2022-08-11T07:09:27;21.40;96.80
26599;DHT22;14240;51.064;16.612;2022-08-11T07:15:05;21.60;95.60
26599;DHT22;14240;51.064;16.612;2022-08-11T07:17:54;21.70;94.80
26599;DHT22;14240;51.064;16.612;2022-08-11T07:20:43;21.80;94.30
26599;DHT22;14240;51.064;16.612;2022-08-11T07:23:30;22.00;94.40
26599;DHT22;14240;51.064;16.612;2022-08-11T07:26:19;22.00;93.90
26599;DHT22;14240;51.064;16.612;2022-08-11T07:29:06;22.10;94.20
26599;DHT22;14240;51.064;16.612;2022-08-11T07:31:49;22.30;93.70
26599;DHT22;14240;51.064;16.612;2022-08-11T07:36:55;22.50;93.10
26599;DHT22;14240;51.064;16.612;2022-08-11T07:39:30;22.70;92.70
26599;DHT22;14240;51.064;16.612;2022-08-11T07:41:58;22.80;92.60
26599;DHT22;14240;51.064;16.612;2022-08-11T07:44:29;22.90;92.60
26599;DHT22;14240;51.064;16.612;2022-08-11T07:46:55;23.00;92.20
26599;DHT22;14240;51.064;16.612;2022-08-11T07:49:43;23.20;92.10
26599;DHT22;14240;51.064;16.612;2022-08-11T07:52:30;23.20;91.60
26599;DHT22;14240;51.064;16.612;2022-08-11T07:55:16;23.40;91.60
26599;DHT22;14240;51.064;16.612;2022-08-11T07:57:46;23.50;91.70
26599;DHT22;14240;51.064;16.612;2022-08-11T08:00:48;23.60;90.90
26599;DHT22;14240;51.064;16.612;2022-08-11T08:03:33;23.80;90.60
26599;DHT22;14240;51.064;16.612;2022-08-11T08:06:18;23.90;90.10
26599;DHT22;14240;51.064;16.612;2022-08-11T08:09:04;23.90;89.00
26599;DHT22;14240;51.064;16.612;2022-08-11T08:11:50;24.00;87.80
26599;DHT22;14240;51.064;16.612;2022-08-11T08:14:34;24.10;87.70
26599;DHT22;14240;51.064;16.612;2022-08-11T08:17:20;24.20;86.60
26599;DHT22;14240;51.064;16.612;2022-08-11T08:20:05;24.40;86.40
26599;DHT22;14240;51.064;16.612;2022-08-11T08:22:34;24.50;85.60
26599;DHT22;14240;51.064;16.612;2022-08-11T08:25:01;24.60;85.20
26599;DHT22;14240;51.064;16.612;2022-08-11T08:27:27;24.70;84.30
26599;DHT22;14240;51.064;16.612;2022-08-11T08:29:53;24.70;84.30
26599;DHT22;14240;51.064;16.612;2022-08-11T08:32:39;24.80;82.20
26599;DHT22;14240;51.064;16.612;2022-08-11T08:35:07;24.90;82.50
26599;DHT22;14240;51.064;16.612;2022-08-11T08:37:34;25.00;80.70
26599;DHT22;14240;51.064;16.612;2022-08-11T08:40:00;25.10;81.40
26599;DHT22;14240;51.064;16.612;2022-08-11T08:42:29;25.10;80.30
26599;DHT22;14240;51.064;16.612;2022-08-11T08:45:06;25.20;80.40
26599;DHT22;14240;51.064;16.612;2022-08-11T08:47:40;25.30;79.60
26599;DHT22;14240;51.064;16.612;2022-08-11T08:50:17;25.30;79.70
26599;DHT22;14240;51.064;16.612;2022-08-11T08:52:51;25.20;78.00
26599;DHT22;14240;51.064;16.612;2022-08-11T08:55:19;25.30;77.80
26599;DHT22;14240;51.064;16.612;2022-08-11T08:57:48;25.30;77.40
26599;DHT22;14240;51.064;16.612;2022-08-11T09:00:15;25.30;78.60
26599;DHT22;14240;51.064;16.612;2022-08-11T09:02:43;25.40;78.10
26599;DHT22;14240;51.064;16.612;2022-08-11T09:05:09;25.50;77.70
26599;DHT22;14240;51.064;16.612;2022-08-11T09:07:36;25.50;76.70
26599;DHT22;14240;51.064;16.612;2022-08-11T09:10:04;25.50;75.40
26599;DHT22;14240;51.064;16.612;2022-08-11T09:12:31;25.60;76.30
26599;DHT22;14240;51.064;16.612;2022-08-11T09:15:03;25.70;74.80
26599;DHT22;14240;51.064;16.612;2022-08-11T09:20:04;25.70;74.70
26599;DHT22;14240;51.064;16.612;2022-08-11T09:22:32;25.80;75.10
26599;DHT22;14240;51.064;16.612;2022-08-11T09:25:18;25.80;73.90
26599;DHT22;14240;51.064;16.612;2022-08-11T09:28:03;25.90;73.40
26599;DHT22;14240;51.064;16.612;2022-08-11T09:30:30;25.90;72.70
26599;DHT22;14240;51.064;16.612;2022-08-11T09:32:58;26.00;72.50
26599;DHT22;14240;51.064;16.612;2022-08-11T09:35:32;26.00;71.80
26599;DHT22;14240;51.064;16.612;2022-08-11T09:37:59;26.20;71.40
26599;DHT22;14240;51.064;16.612;2022-08-11T09:40:47;26.20;69.00
26599;DHT22;14240;51.064;16.612;2022-08-11T09:43:16;26.10;68.00
26599;DHT22;14240;51.064;16.612;2022-08-11T09:46:02;26.10;69.00
26599;DHT22;14240;51.064;16.612;2022-08-11T09:48:41;26.00;70.10
26599;DHT22;14240;51.064;16.612;2022-08-11T09:51:09;26.10;69.10
26599;DHT22;14240;51.064;16.612;2022-08-11T09:53:41;26.10;69.30
26599;DHT22;14240;51.064;16.612;2022-08-11T09:56:13;26.10;68.70
26599;DHT22;14240;51.064;16.612;2022-08-11T09:59:00;26.10;69.30
26599;DHT22;14240;51.064;16.612;2022-08-11T10:01:29;26.10;70.20
26599;DHT22;14240;51.064;16.612;2022-08-11T10:04:03;26.20;70.00
26599;DHT22;14240;51.064;16.612;2022-08-11T10:06:29;26.30;69.90
26599;DHT22;14240;51.064;16.612;2022-08-11T10:09:19;26.50;70.10
26599;DHT22;14240;51.064;16.612;2022-08-11T10:11:47;26.50;69.10
26599;DHT22;14240;51.064;16.612;2022-08-11T10:14:15;26.60;69.20
26599;DHT22;14240;51.064;16.612;2022-08-11T10:17:03;26.60;69.30
26599;DHT22;14240;51.064;16.612;2022-08-11T10:19:32;26.60;70.50
26599;DHT22;14240;51.064;16.612;2022-08-11T10:21:58;26.70;69.90
26599;DHT22;14240;51.064;16.612;2022-08-11T10:24:43;26.70;70.10
26599;DHT22;14240;51.064;16.612;2022-08-11T10:27:28;26.80;70.30
26599;DHT22;14240;51.064;16.612;2022-08-11T10:29:54;26.80;68.80
26599;DHT22;14240;51.064;16.612;2022-08-11T10:32:39;26.90;68.40
26599;DHT22;14240;51.064;16.612;2022-08-11T10:35:24;26.90;67.60
26599;DHT22;14240;51.064;16.612;2022-08-11T10:37:52;27.00;66.40
26599;DHT22;14240;51.064;16.612;2022-08-11T10:40:20;27.00;66.10
26599;DHT22;14240;51.064;16.612;2022-08-11T10:42:49;27.00;66.10
26599;DHT22;14240;51.064;16.612;2022-08-11T10:45:38;27.00;64.90
26599;DHT22;14240;51.064;16.612;2022-08-11T10:48:24;27.00;64.40
26599;DHT22;14240;51.064;16.612;2022-08-11T10:50:51;27.00;65.10
26599;DHT22;14240;51.064;16.612;2022-08-11T10:53:41;27.10;63.60
26599;DHT22;14240;51.064;16.612;2022-08-11T10:56:28;27.10;62.80
26599;DHT22;14240;51.064;16.612;2022-08-11T10:59:14;27.00;62.40
26599;DHT22;14240;51.064;16.612;2022-08-11T11:01:41;27.00;62.80
26599;DHT22;14240;51.064;16.612;2022-08-11T11:04:22;27.00;61.60
26599;DHT22;14240;51.064;16.612;2022-08-11T11:07:08;26.90;62.00
26599;DHT22;14240;51.064;16.612;2022-08-11T11:09:55;26.80;62.10
26599;DHT22;14240;51.064;16.612;2022-08-11T11:15:19;26.70;63.10
26599;DHT22;14240;51.064;16.612;2022-08-11T11:18:39;26.50;63.50
26599;DHT22;14240;51.064;16.612;2022-08-11T11:21:11;26.60;65.00
26599;DHT22;14240;51.064;16.612;2022-08-11T11:32:26;26.50;61.10
26599;DHT22;14240;51.064;16.612;2022-08-11T11:38:01;26.40;59.80
26599;DHT22;14240;51.064;16.612;2022-08-11T11:40:28;26.40;60.00
26599;DHT22;14240;51.064;16.612;2022-08-11T11:42:56;26.30;60.90
26599;DHT22;14240;51.064;16.612;2022-08-11T11:45:24;26.40;61.30
26599;DHT22;14240;51.064;16.612;2022-08-11T11:47:54;26.50;60.70
26599;DHT22;14240;51.064;16.612;2022-08-11T11:50:25;26.50;60.90
26599;DHT22;14240;51.064;16.612;2022-08-11T11:52:53;26.50;60.00
26599;DHT22;14240;51.064;16.612;2022-08-11T11:55:23;26.50;59.90
26599;DHT22;14240;51.064;16.612;2022-08-11T11:57:51;26.30;62.00
26599;DHT22;14240;51.064;16.612;2022-08-11T12:00:37;26.30;62.70
26599;DHT22;14240;51.064;16.612;2022-08-11T12:03:23;26.40;61.30
26599;DHT22;14240;51.064;16.612;2022-08-11T12:05:51;26.50;60.20
26599;DHT22;14240;51.064;16.612;2022-08-11T12:08:20;26.50;60.00
26599;DHT22;14240;51.064;16.612;2022-08-11T12:10:51;26.50;59.50
26599;DHT22;14240;51.064;16.612;2022-08-11T12:13:42;26.50;58.40
26599;DHT22;14240;51.064;16.612;2022-08-11T12:16:10;26.40;57.80
26599;DHT22;14240;51.064;16.612;2022-08-11T12:18:36;26.30;58.50
26599;DHT22;14240;51.064;16.612;2022-08-11T12:21:03;26.30;58.50
26599;DHT22;14240;51.064;16.612;2022-08-11T12:23:31;26.20;58.30
26599;DHT22;14240;51.064;16.612;2022-08-11T12:26:17;26.20;59.00
26599;DHT22;14240;51.064;16.612;2022-08-11T12:29:19;26.20;59.60
26599;DHT22;14240;51.064;16.612;2022-08-11T12:31:46;26.40;59.60
26599;DHT22;14240;51.064;16.612;2022-08-11T12:34:14;26.40;58.80
26599;DHT22;14240;51.064;16.612;2022-08-11T12:36:42;26.50;58.50
26599;DHT22;14240;51.064;16.612;2022-08-11T12:39:12;26.50;58.70
26599;DHT22;14240;51.064;16.612;2022-08-11T12:41:38;26.60;59.00
26599;DHT22;14240;51.064;16.612;2022-08-11T12:44:25;26.60;59.00
26599;DHT22;14240;51.064;16.612;2022-08-11T12:47:09;26.60;58.20
26599;DHT22;14240;51.064;16.612;2022-08-11T12:49:43;26.50;59.00
26599;DHT22;14240;51.064;16.612;2022-08-11T12:52:33;26.50;58.60
26599;DHT22;14240;51.064;16.612;2022-08-11T12:57:38;26.50;57.70
26599;DHT22;14240;51.064;16.612;2022-08-11T13:00:25;26.40;57.80
26599;DHT22;14240;51.064;16.612;2022-08-11T13:03:11;26.40;57.60
26599;DHT22;14240;51.064;16.612;2022-08-11T13:05:58;26.30;57.70
26599;DHT22;14240;51.064;16.612;2022-08-11T13:08:26;26.30;57.50
26599;DHT22;14240;51.064;16.612;2022-08-11T13:10:55;26.30;57.70
26599;DHT22;14240;51.064;16.612;2022-08-11T13:13:40;26.40;57.40
26599;DHT22;14240;51.064;16.612;2022-08-11T13:16:09;26.50;57.40
26599;DHT22;14240;51.064;16.612;2022-08-11T13:18:37;26.50;57.20
26599;DHT22;14240;51.064;16.612;2022-08-11T13:21:04;26.60;57.10
26599;DHT22;14240;51.064;16.612;2022-08-11T13:23:30;26.60;58.20
26599;DHT22;14240;51.064;16.612;2022-08-11T13:25:56;26.50;57.50
26599;DHT22;14240;51.064;16.612;2022-08-11T13:28:23;26.50;58.30
26599;DHT22;14240;51.064;16.612;2022-08-11T13:30:50;26.50;57.30
26599;DHT22;14240;51.064;16.612;2022-08-11T13:33:40;26.30;57.60
26599;DHT22;14240;51.064;16.612;2022-08-11T13:36:06;26.20;58.00
26599;DHT22;14240;51.064;16.612;2022-08-11T13:38:33;26.20;58.10
26599;DHT22;14240;51.064;16.612;2022-08-11T13:40:59;26.20;58.10
26599;DHT22;14240;51.064;16.612;2022-08-11T13:43:25;26.20;58.30
26599;DHT22;14240;51.064;16.612;2022-08-11T13:45:52;26.30;58.30
26599;DHT22;14240;51.064;16.612;2022-08-11T13:48:39;26.40;58.50
26599;DHT22;14240;51.064;16.612;2022-08-11T13:51:07;26.50;58.80
26599;DHT22;14240;51.064;16.612;2022-08-11T13:53:52;26.50;58.50
26599;DHT22;14240;51.064;16.612;2022-08-11T13:56:21;26.50;58.70
26599;DHT22;14240;51.064;16.612;2022-08-11T13:58:47;26.40;57.00
26599;DHT22;14240;51.064;16.612;2022-08-11T14:01:13;26.40;57.50
26599;DHT22;14240;51.064;16.612;2022-08-11T14:03:41;26.40;58.00
26599;DHT22;14240;51.064;16.612;2022-08-11T14:06:08;26.40;57.70
26599;DHT22;14240;51.064;16.612;2022-08-11T14:08:37;26.40;58.00
26599;DHT22;14240;51.064;16.612;2022-08-11T14:11:05;26.40;58.30
26599;DHT22;14240;51.064;16.612;2022-08-11T14:13:51;26.30;58.00
26599;DHT22;14240;51.064;16.612;2022-08-11T14:16:29;26.20;58.00
26599;DHT22;14240;51.064;16.612;2022-08-11T14:19:04;26.20;58.30
26599;DHT22;14240;51.064;16.612;2022-08-11T14:21:37;26.10;57.80
26599;DHT22;14240;51.064;16.612;2022-08-11T14:24:23;26.20;58.00
26599;DHT22;14240;51.064;16.612;2022-08-11T14:26:50;26.20;57.70
26599;DHT22;14240;51.064;16.612;2022-08-11T14:29:21;26.20;58.10
26599;DHT22;14240;51.064;16.612;2022-08-11T14:31:52;26.20;58.30
26599;DHT22;14240;51.064;16.612;2022-08-11T14:34:20;26.20;58.60
26599;DHT22;14240;51.064;16.612;2022-08-11T14:36:55;26.20;58.10
26599;DHT22;14240;51.064;16.612;2022-08-11T14:39:26;26.30;58.80
26599;DHT22;14240;51.064;16.612;2022-08-11T14:41:59;26.30;57.90
26599;DHT22;14240;51.064;16.612;2022-08-11T14:44:50;26.30;56.00
26599;DHT22;14240;51.064;16.612;2022-08-11T14:47:36;26.20;56.40
26599;DHT22;14240;51.064;16.612;2022-08-11T14:50:04;26.20;56.30
26599;DHT22;14240;51.064;16.612;2022-08-11T14:52:33;26.20;55.20
26599;DHT22;14240;51.064;16.612;2022-08-11T14:55:02;26.20;55.00
26599;DHT22;14240;51.064;16.612;2022-08-11T14:57:47;26.10;54.60
26599;DHT22;14240;51.064;16.612;2022-08-11T15:00:14;26.10;54.80
26599;DHT22;14240;51.064;16.612;2022-08-11T15:02:44;26.10;54.70
26599;DHT22;14240;51.064;16.612;2022-08-11T15:05:32;26.10;54.90
26599;DHT22;14240;51.064;16.612;2022-08-11T15:07:58;26.10;54.30
26599;DHT22;14240;51.064;16.612;2022-08-11T15:10:26;26.20;54.60
26599;DHT22;14240;51.064;16.612;2022-08-11T15:12:52;26.20;54.90
26599;DHT22;14240;51.064;16.612;2022-08-11T15:15:18;26.20;55.10
26599;DHT22;14240;51.064;16.612;2022-08-11T15:18:06;26.20;55.20
26599;DHT22;14240;51.064;16.612;2022-08-11T15:20:32;26.20;53.80
26599;DHT22;14240;51.064;16.612;2022-08-11T15:23:16;26.20;53.80
26599;DHT22;14240;51.064;16.612;2022-08-11T15:28:35;26.00;53.60
26599;DHT22;14240;51.064;16.612;2022-08-11T15:31:22;26.00;54.00
26599;DHT22;14240;51.064;16.612;2022-08-11T15:33:59;25.90;53.50
26599;DHT22;14240;51.064;16.612;2022-08-11T15:36:47;25.90;53.40
26599;DHT22;14240;51.064;16.612;2022-08-11T15:39:37;25.80;53.30
26599;DHT22;14240;51.064;16.612;2022-08-11T15:42:22;25.80;54.20
26599;DHT22;14240;51.064;16.612;2022-08-11T15:45:08;25.70;55.00
26599;DHT22;14240;51.064;16.612;2022-08-11T15:48:00;25.70;55.40
26599;DHT22;14240;51.064;16.612;2022-08-11T15:50:30;25.70;55.60
26599;DHT22;14240;51.064;16.612;2022-08-11T15:53:03;25.70;56.00
26599;DHT22;14240;51.064;16.612;2022-08-11T15:55:34;25.80;56.40
26599;DHT22;14240;51.064;16.612;2022-08-11T15:58:02;25.80;56.10
26599;DHT22;14240;51.064;16.612;2022-08-11T16:00:47;25.80;56.40
26599;DHT22;14240;51.064;16.612;2022-08-11T16:03:40;25.80;56.40
26599;DHT22;14240;51.064;16.612;2022-08-11T16:06:25;25.70;56.30
26599;DHT22;14240;51.064;16.612;2022-08-11T16:08:52;25.70;56.30
26599;DHT22;14240;51.064;16.612;2022-08-11T16:11:21;25.70;55.60
26599;DHT22;14240;51.064;16.612;2022-08-11T16:13:47;25.70;55.90
26599;DHT22;14240;51.064;16.612;2022-08-11T16:16:33;25.70;55.50
26599;DHT22;14240;51.064;16.612;2022-08-11T16:19:00;25.70;54.80
26599;DHT22;14240;51.064;16.612;2022-08-11T16:21:32;25.70;55.00
26599;DHT22;14240;51.064;16.612;2022-08-11T16:24:02;25.70;55.10
26599;DHT22;14240;51.064;16.612;2022-08-11T16:26:29;25.60;55.20
26599;DHT22;14240;51.064;16.612;2022-08-11T16:28:58;25.60;55.60
26599;DHT22;14240;51.064;16.612;2022-08-11T16:31:25;25.60;55.10
26599;DHT22;14240;51.064;16.612;2022-08-11T16:33:53;25.60;55.80
26599;DHT22;14240;51.064;16.612;2022-08-11T16:36:22;25.50;55.50
26599;DHT22;14240;51.064;16.612;2022-08-11T16:39:08;25.50;55.50
26599;DHT22;14240;51.064;16.612;2022-08-11T16:41:35;25.50;56.20
26599;DHT22;14240;51.064;16.612;2022-08-11T16:44:21;25.50;56.50
26599;DHT22;14240;51.064;16.612;2022-08-11T16:47:09;25.50;56.80
26599;DHT22;14240;51.064;16.612;2022-08-11T16:49:57;25.40;56.90
26599;DHT22;14240;51.064;16.612;2022-08-11T16:52:22;25.40;57.10
26599;DHT22;14240;51.064;16.612;2022-08-11T16:54:48;25.30;57.00
26599;DHT22;14240;51.064;16.612;2022-08-11T16:57:25;25.30;56.20
26599;DHT22;14240;51.064;16.612;2022-08-11T17:00:14;25.20;55.60
26599;DHT22;14240;51.064;16.612;2022-08-11T17:02:51;25.20;55.70
26599;DHT22;14240;51.064;16.612;2022-08-11T17:05:41;25.10;55.70
26599;DHT22;14240;51.064;16.612;2022-08-11T17:08:42;25.10;55.90
26599;DHT22;14240;51.064;16.612;2022-08-11T17:11:31;25.10;55.90
26599;DHT22;14240;51.064;16.612;2022-08-11T17:14:23;25.00;56.10
26599;DHT22;14240;51.064;16.612;2022-08-11T17:16:50;25.00;56.90
26599;DHT22;14240;51.064;16.612;2022-08-11T17:19:21;24.90;57.30
26599;DHT22;14240;51.064;16.612;2022-08-11T17:21:50;24.90;57.40
26599;DHT22;14240;51.064;16.612;2022-08-11T17:24:38;24.80;57.80
26599;DHT22;14240;51.064;16.612;2022-08-11T17:27:09;24.80;58.20
26599;DHT22;14240;51.064;16.612;2022-08-11T17:29:38;24.70;58.40
26599;DHT22;14240;51.064;16.612;2022-08-11T17:32:07;24.70;58.50
26599;DHT22;14240;51.064;16.612;2022-08-11T17:34:55;24.60;58.30
26599;DHT22;14240;51.064;16.612;2022-08-11T17:37:42;24.50;58.50
26599;DHT22;14240;51.064;16.612;2022-08-11T17:40:11;24.50;58.70
26599;DHT22;14240;51.064;16.612;2022-08-11T17:42:39;24.40;58.80
26599;DHT22;14240;51.064;16.612;2022-08-11T17:45:26;24.30;58.80
26599;DHT22;14240;51.064;16.612;2022-08-11T17:48:14;24.20;58.90
26599;DHT22;14240;51.064;16.612;2022-08-11T17:50:52;24.20;59.00
26599;DHT22;14240;51.064;16.612;2022-08-11T17:53:19;24.10;59.20
26599;DHT22;14240;51.064;16.612;2022-08-11T17:56:04;24.00;59.50
26599;DHT22;14240;51.064;16.612;2022-08-11T17:59:00;24.00;59.80
26599;DHT22;14240;51.064;16.612;2022-08-11T18:01:47;23.90;60.00
26599;DHT22;14240;51.064;16.612;2022-08-11T18:04:14;23.80;60.30
26599;DHT22;14240;51.064;16.612;2022-08-11T18:06:41;23.70;60.90
26599;DHT22;14240;51.064;16.612;2022-08-11T18:09:13;23.60;62.30
26599;DHT22;14240;51.064;16.612;2022-08-11T18:11:59;23.40;63.80
26599;DHT22;14240;51.064;16.612;2022-08-11T18:14:49;23.30;64.90
26599;DHT22;14240;51.064;16.612;2022-08-11T18:17:35;23.20;65.70
26599;DHT22;14240;51.064;16.612;2022-08-11T18:20:20;23.10;66.20
26599;DHT22;14240;51.064;16.612;2022-08-11T18:23:10;23.00;66.70
26599;DHT22;14240;51.064;16.612;2022-08-11T18:26:00;22.90;67.10
26599;DHT22;14240;51.064;16.612;2022-08-11T18:28:49;22.90;67.40
26599;DHT22;14240;51.064;16.612;2022-08-11T18:31:36;22.80;67.60
26599;DHT22;14240;51.064;16.612;2022-08-11T18:34:29;22.70;67.90
26599;DHT22;14240;51.064;16.612;2022-08-11T18:37:24;22.70;68.30
26599;DHT22;14240;51.064;16.612;2022-08-11T18:40:15;22.60;68.50
26599;DHT22;14240;51.064;16.612;2022-08-11T18:43:04;22.60;68.90
26599;DHT22;14240;51.064;16.612;2022-08-11T18:45:52;22.50;69.20
26599;DHT22;14240;51.064;16.612;2022-08-11T18:48:49;22.40;69.80
26599;DHT22;14240;51.064;16.612;2022-08-11T18:51:35;22.40;70.30
26599;DHT22;14240;51.064;16.612;2022-08-11T18:54:23;22.40;70.60
26599;DHT22;14240;51.064;16.612;2022-08-11T18:57:08;22.30;70.90
26599;DHT22;14240;51.064;16.612;2022-08-11T18:59:54;22.30;71.40
26599;DHT22;14240;51.064;16.612;2022-08-11T19:02:42;22.20;71.60
26599;DHT22;14240;51.064;16.612;2022-08-11T19:05:29;22.10;72.00
26599;DHT22;14240;51.064;16.612;2022-08-11T19:08:17;22.00;72.70
26599;DHT22;14240;51.064;16.612;2022-08-11T19:11:03;22.00;73.30
26599;DHT22;14240;51.064;16.612;2022-08-11T19:13:47;21.90;73.40
26599;DHT22;14240;51.064;16.612;2022-08-11T19:16:34;21.80;73.80
26599;DHT22;14240;51.064;16.612;2022-08-11T19:19:19;21.80;74.10
26599;DHT22;14240;51.064;16.612;2022-08-11T19:22:04;21.80;74.30
26599;DHT22;14240;51.064;16.612;2022-08-11T19:24:50;21.80;74.50
26599;DHT22;14240;51.064;16.612;2022-08-11T19:27:37;21.70;74.90
26599;DHT22;14240;51.064;16.612;2022-08-11T19:30:23;21.60;75.20
26599;DHT22;14240;51.064;16.612;2022-08-11T19:33:08;21.50;75.40
26599;DHT22;14240;51.064;16.612;2022-08-11T19:35:52;21.50;75.70
26599;DHT22;14240;51.064;16.612;2022-08-11T19:38:37;21.50;75.90
26599;DHT22;14240;51.064;16.612;2022-08-11T19:41:23;21.40;76.30
26599;DHT22;14240;51.064;16.612;2022-08-11T19:44:07;21.40;76.70
26599;DHT22;14240;51.064;16.612;2022-08-11T19:46:52;21.30;76.90
26599;DHT22;14240;51.064;16.612;2022-08-11T19:49:38;21.20;77.30
26599;DHT22;14240;51.064;16.612;2022-08-11T19:52:24;21.10;78.10
26599;DHT22;14240;51.064;16.612;2022-08-11T19:55:09;21.00;79.30
26599;DHT22;14240;51.064;16.612;2022-08-11T19:57:54;20.90;78.70